sensor_id;sensor_type;location;lat;lon;timestamp;temperature;humidity
39103;DHT22;24847;48.218;16.414;2023-06-26T00:01:47;20.90;99.90
39103;DHT22;24847;48.218;16.414;2023-06-26T00:06:49;20.90;99.90
39103;DHT22;24847;48.218;16.414;2023-06-26T00:11:53;20.90;99.90
39103;DHT22;24847;48.218;16.414;2023-06-26T00:16:56;20.90;99.90
39103;DHT22;24847;48.218;16.414;2023-06-26T00:21:58;20.70;99.90
39103;DHT22;24847;48.218;16.414;2023-06-26T00:27:01;20.50;99.90
39103;DHT22;24847;48.218;16.414;2023-06-26T00:32:04;20.20;99.90
39103;DHT22;24847;48.218;16.414;2023-06-26T00:37:07;20.10;99.90
39103;DHT22;24847;48.218;16.414;2023-06-26T00:42:11;20.10;99.90
39103;DHT22;24847;48.218;16.414;2023-06-26T00:47:15;20.00;99.90
39103;DHT22;24847;48.218;16.414;2023-06-26T00:52:19;20.30;99.90
39103;DHT22;24847;48.218;16.414;2023-06-26T00:57:23;20.40;99.90
39103;DHT22;24847;48.218;16.414;2023-06-26T01:02:25;20.30;99.90
39103;DHT22;24847;48.218;16.414;2023-06-26T01:07:34;19.90;99.90
39103;DHT22;24847;48.218;16.414;2023-06-26T01:12:39;19.70;99.90
39103;DHT22;24847;48.218;16.414;2023-06-26T01:17:42;19.70;99.90
39103;DHT22;24847;48.218;16.414;2023-06-26T01:22:56;19.60;99.90
39103;DHT22;24847;48.218;16.414;2023-06-26T01:28:05;19.60;99.90
39103;DHT22;24847;48.218;16.414;2023-06-26T01:33:07;19.40;99.90
39103;DHT22;24847;48.218;16.414;2023-06-26T01:38:14;19.40;99.90
39103;DHT22;24847;48.218;16.414;2023-06-26T01:43:26;19.10;99.90
39103;DHT22;24847;48.218;16.414;2023-06-26T01:48:37;19.00;99.90
39103;DHT22;24847;48.218;16.414;2023-06-26T01:53:46;19.00;99.90
39103;DHT22;24847;48.218;16.414;2023-06-26T01:58:50;19.10;99.90
39103;DHT22;24847;48.218;16.414;2023-06-26T02:03:55;18.80;99.90
39103;DHT22;24847;48.218;16.414;2023-06-26T02:08:57;18.70;99.90
39103;DHT22;24847;48.218;16.414;2023-06-26T02:14:01;18.90;99.90
39103;DHT22;24847;48.218;16.414;2023-06-26T02:19:03;18.70;99.90
39103;DHT22;24847;48.218;16.414;2023-06-26T02:24:06;18.50;99.90
39103;DHT22;24847;48.218;16.414;2023-06-26T02:29:09;18.50;99.90
39103;DHT22;24847;48.218;16.414;2023-06-26T02:34:12;18.50;99.90
39103;DHT22;24847;48.218;16.414;2023-06-26T02:39:14;18.30;99.90
39103;DHT22;24847;48.218;16.414;2023-06-26T02:44:18;18.40;99.90
39103;DHT22;24847;48.218;16.414;2023-06-26T02:49:21;18.40;99.90
39103;DHT22;24847;48.218;16.414;2023-06-26T02:54:24;18.50;99.90
39103;DHT22;24847;48.218;16.414;2023-06-26T02:59:27;18.10;99.90
39103;DHT22;24847;48.218;16.414;2023-06-26T03:04:29;17.90;99.90
39103;DHT22;24847;48.218;16.414;2023-06-26T03:09:31;17.70;99.90
39103;DHT22;24847;48.218;16.414;2023-06-26T03:14:35;17.90;99.90
39103;DHT22;24847;48.218;16.414;2023-06-26T03:19:37;18.10;99.90
39103;DHT22;24847;48.218;16.414;2023-06-26T03:24:39;17.90;99.90
39103;DHT22;24847;48.218;16.414;2023-06-26T03:29:43;18.10;99.90
39103;DHT22;24847;48.218;16.414;2023-06-26T03:34:46;18.20;99.90
39103;DHT22;24847;48.218;16.414;2023-06-26T03:39:48;18.60;99.90
39103;DHT22;24847;48.218;16.414;2023-06-26T03:44:52;18.40;99.90
39103;DHT22;24847;48.218;16.414;2023-06-26T03:49:54;18.20;99.90
39103;DHT22;24847;48.218;16.414;2023-06-26T03:54:57;18.00;99.90
39103;DHT22;24847;48.218;16.414;2023-06-26T04:00:00;18.00;99.90
39103;DHT22;24847;48.218;16.414;2023-06-26T04:05:07;18.20;99.90
39103;DHT22;24847;48.218;16.414;2023-06-26T04:10:09;18.20;99.90
39103;DHT22;24847;48.218;16.414;2023-06-26T04:15:13;18.20;99.90
39103;DHT22;24847;48.218;16.414;2023-06-26T04:20:16;18.60;99.90
39103;DHT22;24847;48.218;16.414;2023-06-26T04:25:18;18.60;99.90
39103;DHT22;24847;48.218;16.414;2023-06-26T04:30:22;18.70;99.90
39103;DHT22;24847;48.218;16.414;2023-06-26T04:35:24;18.80;99.90
39103;DHT22;24847;48.218;16.414;2023-06-26T04:40:26;19.30;99.90
39103;DHT22;24847;48.218;16.414;2023-06-26T04:45:30;19.60;99.90
39103;DHT22;24847;48.218;16.414;2023-06-26T04:50:32;19.70;99.90
39103;DHT22;24847;48.218;16.414;2023-06-26T04:55:35;20.10;99.90
39103;DHT22;24847;48.218;16.414;2023-06-26T05:00:39;20.20;99.90
39103;DHT22;24847;48.218;16.414;2023-06-26T05:05:43;20.50;99.90
39103;DHT22;24847;48.218;16.414;2023-06-26T05:10:45;20.90;99.90
39103;DHT22;24847;48.218;16.414;2023-06-26T05:15:49;21.00;99.90
39103;DHT22;24847;48.218;16.414;2023-06-26T05:20:53;21.30;99.90
39103;DHT22;24847;48.218;16.414;2023-06-26T05:25:56;22.00;99.90
39103;DHT22;24847;48.218;16.414;2023-06-26T05:31:01;22.50;99.90
39103;DHT22;24847;48.218;16.414;2023-06-26T05:36:06;22.90;99.90
39103;DHT22;24847;48.218;16.414;2023-06-26T05:41:10;23.30;99.90
39103;DHT22;24847;48.218;16.414;2023-06-26T05:46:14;22.80;99.90
39103;DHT22;24847;48.218;16.414;2023-06-26T05:51:16;23.00;99.90
39103;DHT22;24847;48.218;16.414;2023-06-26T05:56:19;23.20;99.90
39103;DHT22;24847;48.218;16.414;2023-06-26T06:01:23;23.50;99.90
39103;DHT22;24847;48.218;16.414;2023-06-26T06:06:26;23.60;99.90
39103;DHT22;24847;48.218;16.414;2023-06-26T06:11:28;23.60;99.90
39103;DHT22;24847;48.218;16.414;2023-06-26T06:16:31;24.30;99.90
39103;DHT22;24847;48.218;16.414;2023-06-26T06:21:34;24.50;99.90
39103;DHT22;24847;48.218;16.414;2023-06-26T06:26:36;24.80;99.90
39103;DHT22;24847;48.218;16.414;2023-06-26T06:31:39;25.70;99.90
39103;DHT22;24847;48.218;16.414;2023-06-26T06:36:42;26.00;99.90
39103;DHT22;24847;48.218;16.414;2023-06-26T06:41:44;26.00;99.90
39103;DHT22;24847;48.218;16.414;2023-06-26T06:46:48;25.80;99.90
39103;DHT22;24847;48.218;16.414;2023-06-26T06:51:50;25.80;99.90
39103;DHT22;24847;48.218;16.414;2023-06-26T06:56:52;26.40;99.90
39103;DHT22;24847;48.218;16.414;2023-06-26T07:01:56;26.40;99.90
39103;DHT22;24847;48.218;16.414;2023-06-26T07:06:58;26.20;99.90
39103;DHT22;24847;48.218;16.414;2023-06-26T07:12:00;26.10;99.90
39103;DHT22;24847;48.218;16.414;2023-06-26T07:17:05;26.50;99.90
39103;DHT22;24847;48.218;16.414;2023-06-26T07:22:07;26.60;99.90
39103;DHT22;24847;48.218;16.414;2023-06-26T07:27:09;27.40;99.90
39103;DHT22;24847;48.218;16.414;2023-06-26T07:32:13;27.40;99.90
39103;DHT22;24847;48.218;16.414;2023-06-26T07:37:15;27.80;99.90
39103;DHT22;24847;48.218;16.414;2023-06-26T07:42:17;27.80;99.90
39103;DHT22;24847;48.218;16.414;2023-06-26T07:47:21;28.20;99.90
39103;DHT22;24847;48.218;16.414;2023-06-26T07:52:23;28.30;99.90
39103;DHT22;24847;48.218;16.414;2023-06-26T07:57:25;28.90;99.90
39103;DHT22;24847;48.218;16.414;2023-06-26T08:02:29;28.10;99.90
39103;DHT22;24847;48.218;16.414;2023-06-26T08:07:31;28.70;99.90
39103;DHT22;24847;48.218;16.414;2023-06-26T08:12:34;28.60;99.90
39103;DHT22;24847;48.218;16.414;2023-06-26T08:17:38;29.20;99.90
39103;DHT22;24847;48.218;16.414;2023-06-26T08:22:41;29.70;99.90
39103;DHT22;24847;48.218;16.414;2023-06-26T08:27:43;28.70;99.90
39103;DHT22;24847;48.218;16.414;2023-06-26T08:32:46;28.50;99.90
39103;DHT22;24847;48.218;16.414;2023-06-26T08:37:49;28.90;99.90
39103;DHT22;24847;48.218;16.414;2023-06-26T08:42:52;28.80;99.90
39103;DHT22;24847;48.218;16.414;2023-06-26T08:48:00;28.40;99.90
39103;DHT22;24847;48.218;16.414;2023-06-26T08:53:07;29.30;99.90
39103;DHT22;24847;48.218;16.414;2023-06-26T08:58:13;30.00;99.90
39103;DHT22;24847;48.218;16.414;2023-06-26T09:03:17;29.90;99.90
39103;DHT22;24847;48.218;16.414;2023-06-26T09:08:19;30.10;99.90
39103;DHT22;24847;48.218;16.414;2023-06-26T09:13:21;30.20;99.90
39103;DHT22;24847;48.218;16.414;2023-06-26T09:18:25;29.30;99.90
39103;DHT22;24847;48.218;16.414;2023-06-26T09:23:27;29.80;99.90
39103;DHT22;24847;48.218;16.414;2023-06-26T09:28:30;30.10;99.90
39103;DHT22;24847;48.218;16.414;2023-06-26T09:33:36;30.00;99.90
39103;DHT22;24847;48.218;16.414;2023-06-26T09:38:39;30.30;99.90
39103;DHT22;24847;48.218;16.414;2023-06-26T09:43:45;30.00;99.90
39103;DHT22;24847;48.218;16.414;2023-06-26T09:48:49;30.20;99.90
39103;DHT22;24847;48.218;16.414;2023-06-26T09:53:52;29.60;99.90
39103;DHT22;24847;48.218;16.414;2023-06-26T09:58:55;29.70;99.90
39103;DHT22;24847;48.218;16.414;2023-06-26T10:04:00;30.00;99.90
39103;DHT22;24847;48.218;16.414;2023-06-26T10:09:03;30.00;99.90
39103;DHT22;24847;48.218;16.414;2023-06-26T10:14:07;30.10;99.90
39103;DHT22;24847;48.218;16.414;2023-06-26T10:19:13;29.70;99.90
39103;DHT22;24847;48.218;16.414;2023-06-26T10:24:16;29.50;99.90
39103;DHT22;24847;48.218;16.414;2023-06-26T10:29:20;29.50;99.90
39103;DHT22;24847;48.218;16.414;2023-06-26T10:34:25;29.30;99.90
39103;DHT22;24847;48.218;16.414;2023-06-26T10:39:27;29.40;99.90
39103;DHT22;24847;48.218;16.414;2023-06-26T10:44:48;29.00;99.90
39103;DHT22;24847;48.218;16.414;2023-06-26T10:49:52;29.00;99.90
39103;DHT22;24847;48.218;16.414;2023-06-26T10:54:55;27.90;99.90
39103;DHT22;24847;48.218;16.414;2023-06-26T11:00:13;28.00;99.90
39103;DHT22;24847;48.218;16.414;2023-06-26T11:05:25;27.70;99.90
39103;DHT22;24847;48.218;16.414;2023-06-26T11:10:30;27.30;99.90
39103;DHT22;24847;48.218;16.414;2023-06-26T11:15:50;26.90;99.90
39103;DHT22;24847;48.218;16.414;2023-06-26T11:20:54;27.00;99.90
39103;DHT22;24847;48.218;16.414;2023-06-26T11:26:18;27.10;99.90
39103;DHT22;24847;48.218;16.414;2023-06-26T11:31:30;27.20;99.90
39103;DHT22;24847;48.218;16.414;2023-06-26T11:36:35;26.80;99.90
39103;DHT22;24847;48.218;16.414;2023-06-26T11:41:39;26.80;99.90
39103;DHT22;24847;48.218;16.414;2023-06-26T11:46:42;26.70;99.90
39103;DHT22;24847;48.218;16.414;2023-06-26T11:51:46;26.60;99.90
39103;DHT22;24847;48.218;16.414;2023-06-26T11:56:52;26.70;99.90
39103;DHT22;24847;48.218;16.414;2023-06-26T12:01:57;26.80;99.90
39103;DHT22;24847;48.218;16.414;2023-06-26T12:07:01;26.90;99.90
39103;DHT22;24847;48.218;16.414;2023-06-26T12:12:05;26.50;99.90
39103;DHT22;24847;48.218;16.414;2023-06-26T12:17:10;26.40;99.90
39103;DHT22;24847;48.218;16.414;2023-06-26T12:22:14;26.20;99.90
39103;DHT22;24847;48.218;16.414;2023-06-26T12:27:18;26.20;99.90
39103;DHT22;24847;48.218;16.414;2023-06-26T12:32:23;26.20;99.90
39103;DHT22;24847;48.218;16.414;2023-06-26T12:37:27;26.10;99.90
39103;DHT22;24847;48.218;16.414;2023-06-26T12:42:33;26.00;99.90
39103;DHT22;24847;48.218;16.414;2023-06-26T12:47:35;26.10;99.90
39103;DHT22;24847;48.218;16.414;2023-06-26T12:52:40;26.10;99.90
39103;DHT22;24847;48.218;16.414;2023-06-26T12:57:42;25.90;99.90
39103;DHT22;24847;48.218;16.414;2023-06-26T13:02:45;26.30;99.90
39103;DHT22;24847;48.218;16.414;2023-06-26T13:07:49;26.10;99.90
39103;DHT22;24847;48.218;16.414;2023-06-26T13:12:51;26.20;99.90
39103;DHT22;24847;48.218;16.414;2023-06-26T13:17:54;26.20;99.90
39103;DHT22;24847;48.218;16.414;2023-06-26T13:22:57;26.00;99.90
39103;DHT22;24847;48.218;16.414;2023-06-26T13:27:59;26.10;99.90
39103;DHT22;24847;48.218;16.414;2023-06-26T13:33:02;26.30;99.90
39103;DHT22;24847;48.218;16.414;2023-06-26T13:38:06;26.50;99.90
39103;DHT22;24847;48.218;16.414;2023-06-26T13:43:08;26.40;99.90
39103;DHT22;24847;48.218;16.414;2023-06-26T13:48:10;26.40;99.90
39103;DHT22;24847;48.218;16.414;2023-06-26T13:53:14;26.40;99.90
39103;DHT22;24847;48.218;16.414;2023-06-26T13:58:16;26.30;99.90
39103;DHT22;24847;48.218;16.414;2023-06-26T14:03:23;26.30;99.90
39103;DHT22;24847;48.218;16.414;2023-06-26T14:08:26;26.40;99.90
39103;DHT22;24847;48.218;16.414;2023-06-26T14:13:29;26.40;99.90
39103;DHT22;24847;48.218;16.414;2023-06-26T14:18:31;26.40;99.90
39103;DHT22;24847;48.218;16.414;2023-06-26T14:23:35;26.50;99.90
39103;DHT22;24847;48.218;16.414;2023-06-26T14:28:38;26.50;99.90
39103;DHT22;24847;48.218;16.414;2023-06-26T14:33:40;26.60;99.90
39103;DHT22;24847;48.218;16.414;2023-06-26T14:38:44;26.50;99.90
39103;DHT22;24847;48.218;16.414;2023-06-26T14:43:46;26.60;99.90
39103;DHT22;24847;48.218;16.414;2023-06-26T14:48:49;26.60;99.90
39103;DHT22;24847;48.218;16.414;2023-06-26T14:53:53;26.50;99.90
39103;DHT22;24847;48.218;16.414;2023-06-26T14:58:55;26.60;99.90
39103;DHT22;24847;48.218;16.414;2023-06-26T15:03:57;26.60;99.90
39103;DHT22;24847;48.218;16.414;2023-06-26T15:09:01;26.60;99.90
39103;DHT22;24847;48.218;16.414;2023-06-26T15:14:04;26.60;99.90
39103;DHT22;24847;48.218;16.414;2023-06-26T15:19:07;26.70;99.90
39103;DHT22;24847;48.218;16.414;2023-06-26T15:24:11;26.70;99.90
39103;DHT22;24847;48.218;16.414;2023-06-26T15:29:13;26.60;99.90
39103;DHT22;24847;48.218;16.414;2023-06-26T15:34:18;26.70;99.90
39103;DHT22;24847;48.218;16.414;2023-06-26T15:39:22;26.70;99.90
39103;DHT22;24847;48.218;16.414;2023-06-26T15:44:24;26.80;99.90
39103;DHT22;24847;48.218;16.414;2023-06-26T15:49:27;26.90;99.90
39103;DHT22;24847;48.218;16.414;2023-06-26T15:54:30;26.80;99.90
39103;DHT22;24847;48.218;16.414;2023-06-26T15:59:33;27.00;99.90
39103;DHT22;24847;48.218;16.414;2023-06-26T16:04:35;26.80;99.90
39103;DHT22;24847;48.218;16.414;2023-06-26T16:09:39;26.70;99.90
39103;DHT22;24847;48.218;16.414;2023-06-26T16:14:41;26.70;99.90
39103;DHT22;24847;48.218;16.414;2023-06-26T16:19:43;26.70;99.90
39103;DHT22;24847;48.218;16.414;2023-06-26T16:24:47;26.90;99.90
39103;DHT22;24847;48.218;16.414;2023-06-26T16:29:49;26.80;99.90
39103;DHT22;24847;48.218;16.414;2023-06-26T16:34:51;26.80;99.90
39103;DHT22;24847;48.218;16.414;2023-06-26T16:39:55;26.80;99.90
39103;DHT22;24847;48.218;16.414;2023-06-26T16:44:58;26.70;99.90
39103;DHT22;24847;48.218;16.414;2023-06-26T16:50:00;26.60;99.90
39103;DHT22;24847;48.218;16.414;2023-06-26T16:55:05;26.40;99.90
39103;DHT22;24847;48.218;16.414;2023-06-26T17:00:08;26.40;99.90
39103;DHT22;24847;48.218;16.414;2023-06-26T17:05:10;26.30;99.90
39103;DHT22;24847;48.218;16.414;2023-06-26T17:10:14;26.30;99.90
39103;DHT22;24847;48.218;16.414;2023-06-26T17:15:17;26.10;99.90
39103;DHT22;24847;48.218;16.414;2023-06-26T17:20:19;26.20;99.90
39103;DHT22;24847;48.218;16.414;2023-06-26T17:25:22;26.30;99.90
39103;DHT22;24847;48.218;16.414;2023-06-26T17:30:25;26.10;99.90
39103;DHT22;24847;48.218;16.414;2023-06-26T17:35:27;26.30;99.90
39103;DHT22;24847;48.218;16.414;2023-06-26T17:40:31;26.30;99.90
39103;DHT22;24847;48.218;16.414;2023-06-26T17:45:33;26.10;99.90
39103;DHT22;24847;48.218;16.414;2023-06-26T17:50:37;26.10;99.90
39103;DHT22;24847;48.218;16.414;2023-06-26T17:55:41;25.90;99.90
39103;DHT22;24847;48.218;16.414;2023-06-26T18:00:43;25.60;99.90
39103;DHT22;24847;48.218;16.414;2023-06-26T18:05:46;25.40;99.90
39103;DHT22;24847;48.218;16.414;2023-06-26T18:10:50;25.30;99.90
39103;DHT22;24847;48.218;16.414;2023-06-26T18:15:52;25.20;99.90
39103;DHT22;24847;48.218;16.414;2023-06-26T18:20:54;25.30;99.90
39103;DHT22;24847;48.218;16.414;2023-06-26T18:25:58;25.00;99.90
39103;DHT22;24847;48.218;16.414;2023-06-26T18:31:01;25.00;99.90
39103;DHT22;24847;48.218;16.414;2023-06-26T18:36:05;24.90;99.90
39103;DHT22;24847;48.218;16.414;2023-06-26T18:41:12;25.00;99.90
39103;DHT22;24847;48.218;16.414;2023-06-26T18:46:15;25.00;99.90
39103;DHT22;24847;48.218;16.414;2023-06-26T18:51:18;25.10;99.90
39103;DHT22;24847;48.218;16.414;2023-06-26T18:56:21;24.90;99.90
39103;DHT22;24847;48.218;16.414;2023-06-26T19:01:24;24.90;99.90
39103;DHT22;24847;48.218;16.414;2023-06-26T19:06:26;24.80;99.90
39103;DHT22;24847;48.218;16.414;2023-06-26T19:11:32;24.90;99.90
39103;DHT22;24847;48.218;16.414;2023-06-26T19:16:35;24.80;99.90
39103;DHT22;24847;48.218;16.414;2023-06-26T19:21:38;24.70;99.90
39103;DHT22;24847;48.218;16.414;2023-06-26T19:26:42;24.50;99.90
39103;DHT22;24847;48.218;16.414;2023-06-26T19:31:45;24.50;99.90
39103;DHT22;24847;48.218;16.414;2023-06-26T19:36:49;24.40;99.90
39103;DHT22;24847;48.218;16.414;2023-06-26T19:41:54;24.40;99.90
39103;DHT22;24847;48.218;16.414;2023-06-26T19:46:56;24.30;99.90
39103;DHT22;24847;48.218;16.414;2023-06-26T19:51:59;24.30;99.90
39103;DHT22;24847;48.218;16.414;2023-06-26T19:57:03;24.30;99.90
39103;DHT22;24847;48.218;16.414;2023-06-26T20:02:06;24.20;99.90
39103;DHT22;24847;48.218;16.414;2023-06-26T20:07:09;24.10;99.90
39103;DHT22;24847;48.218;16.414;2023-06-26T20:12:13;24.10;99.90
39103;DHT22;24847;48.218;16.414;2023-06-26T20:17:16;24.10;99.90
39103;DHT22;24847;48.218;16.414;2023-06-26T20:22:18;24.10;99.90
39103;DHT22;24847;48.218;16.414;2023-06-26T20:27:22;24.00;99.90
39103;DHT22;24847;48.218;16.414;2023-06-26T20:32:25;23.80;99.90
39103;DHT22;24847;48.218;16.414;2023-06-26T20:37:27;23.80;99.90
39103;DHT22;24847;48.218;16.414;2023-06-26T20:42:31;23.90;99.90
39103;DHT22;24847;48.218;16.414;2023-06-26T20:47:34;23.80;99.90
39103;DHT22;24847;48.218;16.414;2023-06-26T20:52:43;23.80;99.90
39103;DHT22;24847;48.218;16.414;2023-06-26T20:57:47;23.70;99.90
39103;DHT22;24847;48.218;16.414;2023-06-26T21:02:49;23.60;99.90
39103;DHT22;24847;48.218;16.414;2023-06-26T21:07:52;23.70;99.90
39103;DHT22;24847;48.218;16.414;2023-06-26T21:12:55;23.60;99.90
39103;DHT22;24847;48.218;16.414;2023-06-26T21:17:58;23.60;99.90
39103;DHT22;24847;48.218;16.414;2023-06-26T21:23:00;23.50;99.90
39103;DHT22;24847;48.218;16.414;2023-06-26T21:28:04;23.70;99.90
39103;DHT22;24847;48.218;16.414;2023-06-26T21:33:06;23.50;99.90
39103;DHT22;24847;48.218;16.414;2023-06-26T21:38:08;23.50;99.90
39103;DHT22;24847;48.218;16.414;2023-06-26T21:43:12;23.00;99.90
39103;DHT22;24847;48.218;16.414;2023-06-26T21:48:14;22.90;99.90
39103;DHT22;24847;48.218;16.414;2023-06-26T21:53:16;22.70;99.90
39103;DHT22;24847;48.218;16.414;2023-06-26T21:58:20;22.50;99.90
39103;DHT22;24847;48.218;16.414;2023-06-26T22:03:22;22.50;99.90
39103;DHT22;24847;48.218;16.414;2023-06-26T22:08:25;22.50;99.90
39103;DHT22;24847;48.218;16.414;2023-06-26T22:13:28;22.60;99.90
39103;DHT22;24847;48.218;16.414;2023-06-26T22:18:30;22.70;99.90
39103;DHT22;24847;48.218;16.414;2023-06-26T22:23:33;22.70;99.90
39103;DHT22;24847;48.218;16.414;2023-06-26T22:28:37;22.70;99.90
39103;DHT22;24847;48.218;16.414;2023-06-26T22:33:39;22.80;99.90
39103;DHT22;24847;48.218;16.414;2023-06-26T22:38:41;22.90;99.90
39103;DHT22;24847;48.218;16.414;2023-06-26T22:43:45;22.90;99.90
39103;DHT22;24847;48.218;16.414;2023-06-26T22:48:47;22.90;99.90
39103;DHT22;24847;48.218;16.414;2023-06-26T22:53:51;22.90;99.90
39103;DHT22;24847;48.218;16.414;2023-06-26T22:58:54;23.00;99.90
39103;DHT22;24847;48.218;16.414;2023-06-26T23:03:57;22.90;99.90
39103;DHT22;24847;48.218;16.414;2023-06-26T23:08:59;22.70;99.90
39103;DHT22;24847;48.218;16.414;2023-06-26T23:14:03;22.80;99.90
39103;DHT22;24847;48.218;16.414;2023-06-26T23:19:05;22.80;99.90
39103;DHT22;24847;48.218;16.414;2023-06-26T23:24:08;22.80;99.90
39103;DHT22;24847;48.218;16.414;2023-06-26T23:29:12;22.80;99.90
39103;DHT22;24847;48.218;16.414;2023-06-26T23:34:18;22.90;99.90
39103;DHT22;24847;48.218;16.414;2023-06-26T23:39:20;23.00;99.90
39103;DHT22;24847;48.218;16.414;2023-06-26T23:44:24;23.00;99.90
39103;DHT22;24847;48.218;16.414;2023-06-26T23:49:26;23.00;99.90
39103;DHT22;24847;48.218;16.414;2023-06-26T23:54:29;22.80;99.90
39103;DHT22;24847;48.218;16.414;2023-06-26T23:59:32;22.90;99.90
